Time;durP1;ratioP1;P1;durP2;ratioP2;P2;SDS_P1;SDS_P2;PMS_P1;PMS_P2;Temp;Humidity;BMP_temperature;BMP_pressure;BME280_temperature;BME280_humidity;BME280_pressure;Samples;Min_cycle;Max_cycle;Signal;HPM_P1;HPM_P2
2022/12/16 00:01:31;;;;;;;37.13;28.63;;;2.30;1.00;;;;;;5119100;28;20164;-40
2022/12/16 00:03:58;;;;;;;34.60;26.93;;;2.40;1.00;;;;;;5118798;28;20854;-47
2022/12/16 00:06:26;;;;;;;33.70;26.00;;;2.30;1.00;;;;;;5109382;28;20234;-43
2022/12/16 00:08:52;;;;;;;38.67;28.80;;;2.30;1.00;;;;;;5080493;28;20434;-40
2022/12/16 00:11:18;;;;;;;37.17;27.20;;;2.30;1.00;;;;;;5098319;28;20790;-42
2022/12/16 00:13:44;;;;;;;36.47;27.10;;;2.30;1.00;;;;;;5118067;28;20266;-41
2022/12/16 00:16:14;;;;;;;37.20;27.00;;;2.30;1.00;;;;;;5117925;28;20453;-39
2022/12/16 00:18:40;;;;;;;36.77;25.40;;;2.30;1.00;;;;;;5098857;28;20188;-39
2022/12/16 00:21:07;;;;;;;39.33;29.23;;;2.30;1.00;;;;;;5105706;28;20478;-40
2022/12/16 00:23:32;;;;;;;36.90;27.60;;;2.30;1.00;;;;;;5118546;28;20727;-41
2022/12/16 00:25:58;;;;;;;35.53;29.07;;;2.30;1.00;;;;;;5118199;28;20406;-40
2022/12/16 00:28:24;;;;;;;38.70;28.80;;;2.20;1.00;;;;;;5118431;28;20187;-41
2022/12/16 00:30:51;;;;;;;38.17;29.27;;;2.20;1.00;;;;;;5118876;28;20709;-41
2022/12/16 00:33:19;;;;;;;39.80;29.90;;;2.20;1.00;;;;;;5118564;28;20508;-41
2022/12/16 00:35:45;;;;;;;36.17;28.60;;;2.20;1.00;;;;;;5118526;28;20920;-40
2022/12/16 00:38:11;;;;;;;36.43;28.93;;;2.20;1.00;;;;;;5118154;28;20520;-42
2022/12/16 00:40:36;;;;;;;33.17;25.97;;;2.20;1.00;;;;;;5083844;28;20457;-39
2022/12/16 00:43:02;;;;;;;38.27;29.07;;;2.10;1.00;;;;;;5098391;28;20184;-40
2022/12/16 00:45:29;;;;;;;36.67;28.27;;;2.10;1.00;;;;;;5097872;28;20180;-41
2022/12/16 00:47:54;;;;;;;43.90;30.27;;;2.10;1.00;;;;;;5098553;28;20191;-41
2022/12/16 00:50:20;;;;;;;40.07;29.50;;;2.10;1.00;;;;;;5096992;28;20414;-41
2022/12/16 00:52:47;;;;;;;35.30;26.83;;;2.10;99.90;;;;;;5080212;28;20177;-43
2022/12/16 00:55:13;;;;;;;33.47;26.40;;;2.00;99.90;;;;;;5098174;28;20481;-44
2022/12/16 00:57:39;;;;;;;36.23;28.63;;;2.00;99.90;;;;;;5097652;28;20422;-41
2022/12/16 01:00:06;;;;;;;35.17;26.83;;;2.00;99.90;;;;;;5097532;28;20674;-41
2022/12/16 01:02:31;;;;;;;33.23;26.77;;;2.00;1.00;;;;;;5098123;28;20184;-40
2022/12/16 01:04:57;;;;;;;33.27;25.57;;;2.00;1.00;;;;;;5096919;28;20425;-41
2022/12/16 01:07:23;;;;;;;34.60;26.77;;;2.00;1.00;;;;;;5098379;28;20215;-40
2022/12/16 01:09:48;;;;;;;32.40;25.77;;;2.00;1.00;;;;;;5117557;28;20183;-41
2022/12/16 01:12:14;;;;;;;36.57;26.33;;;2.00;1.00;;;;;;5118381;28;20323;-40
2022/12/16 01:14:40;;;;;;;35.97;26.03;;;2.00;1.00;;;;;;5118499;28;20270;-40
2022/12/16 01:17:05;;;;;;;33.20;25.83;;;1.90;1.00;;;;;;5117823;28;20167;-42
2022/12/16 01:19:31;;;;;;;35.03;25.67;;;1.90;1.00;;;;;;5111305;28;20176;-42
2022/12/16 01:21:56;;;;;;;14.90;11.23;;;1.90;1.00;;;;;;5097926;28;20462;-41
2022/12/16 01:24:22;;;;;;;23.63;13.60;;;2.20;1.00;;;;;;5098118;28;20195;-41
2022/12/16 01:26:48;;;;;;;27.47;18.40;;;3.60;1.00;;;;;;5098098;28;20208;-41
2022/12/16 01:29:13;;;;;;;29.03;22.70;;;5.00;1.00;;;;;;5111438;28;20184;-42
2022/12/16 01:31:39;;;;;;;35.10;27.23;;;5.50;1.00;;;;;;5117405;28;20168;-41
2022/12/16 01:34:05;;;;;;;38.17;29.53;;;5.30;1.00;;;;;;5117234;28;20191;-41
2022/12/16 01:36:30;;;;;;;39.10;29.90;;;5.00;1.00;;;;;;5121737;28;20578;-41
2022/12/16 01:38:56;;;;;;;40.23;30.40;;;4.60;99.90;;;;;;5120055;28;20396;-42
2022/12/16 01:41:22;;;;;;;38.73;28.03;;;4.20;99.90;;;;;;5121023;28;20183;-42
2022/12/16 01:43:48;;;;;;;36.97;28.93;;;3.90;1.00;;;;;;5115241;28;20176;-41
2022/12/16 01:46:13;;;;;;;36.53;28.57;;;3.60;99.90;;;;;;5083483;28;20268;-43
2022/12/16 01:48:48;;;;;;;35.13;26.90;;;3.30;1.00;;;;;;5115996;28;20786;-40
2022/12/16 01:51:32;;;;;;;37.60;28.50;;;3.10;1.00;;;;;;5121768;28;20183;-43
2022/12/16 01:54:04;;;;;;;33.33;26.80;;;2.90;99.90;;;;;;5121936;28;20503;-42
2022/12/16 01:56:31;;;;;;;37.63;27.60;;;2.80;95.40;;;;;;5103660;28;20459;-41
2022/12/16 01:58:57;;;;;;;36.27;28.27;;;2.70;1.00;;;;;;5103326;28;20425;-40
2022/12/16 02:01:22;;;;;;;37.03;29.13;;;2.60;99.90;;;;;;5121067;28;20758;-41
2022/12/16 02:03:50;;;;;;;38.53;27.90;;;2.50;99.90;;;;;;5121608;28;20418;-40
2022/12/16 02:06:15;;;;;;;34.50;26.87;;;2.40;99.90;;;;;;5103700;28;20176;-44
2022/12/16 02:08:41;;;;;;;40.43;28.40;;;2.40;1.00;;;;;;5088126;28;20521;-41
2022/12/16 02:11:36;;;;;;;36.03;29.13;;;2.30;1.00;;;;;;5100573;28;20179;-43
2022/12/16 02:14:20;;;;;;;34.27;25.90;;;2.20;1.00;;;;;;5065546;28;20618;-42
2022/12/16 02:20:25;;;;;;;34.20;25.97;;;2.10;99.90;;;;;;5120803;28;20404;-40
2022/12/16 02:23:16;;;;;;;35.00;25.60;;;2.10;11.60;;;;;;5120244;28;20405;-41
2022/12/16 02:25:54;;;;;;;37.90;27.30;;;2.00;1.00;;;;;;5119488;28;20433;-41
2022/12/16 02:28:37;;;;;;;35.13;24.80;;;2.00;1.00;;;;;;5109210;28;20434;-41
2022/12/16 02:31:54;;;;;;;38.27;27.67;;;2.00;1.00;;;;;;5100254;28;20430;-40
2022/12/16 02:34:37;;;;;;;35.00;26.20;;;2.00;1.00;;;;;;5060976;28;20459;-39
2022/12/16 02:37:15;;;;;;;34.33;25.97;;;2.00;99.90;;;;;;5099784;28;20691;-40
2022/12/16 02:39:48;;;;;;;32.83;25.83;;;1.90;99.90;;;;;;5099382;28;20471;-39
2022/12/16 02:42:31;;;;;;;35.43;27.63;;;1.90;99.90;;;;;;5099594;28;20421;-40
2022/12/16 02:45:00;;;;;;;36.03;26.10;;;1.90;99.90;;;;;;5100421;28;20407;-42
2022/12/16 02:47:26;;;;;;;35.77;27.20;;;1.90;82.40;;;;;;5097855;28;20491;-41
2022/12/16 02:49:53;;;;;;;34.83;26.60;;;1.90;1.00;;;;;;5097582;28;20419;-40
2022/12/16 02:52:22;;;;;;;34.93;26.50;;;1.90;1.00;;;;;;5098699;28;20346;-41
2022/12/16 02:54:50;;;;;;;32.33;26.00;;;1.90;1.00;;;;;;5097636;28;20406;-39
2022/12/16 02:57:45;;;;;;;34.00;24.57;;;1.80;1.00;;;;;;5100025;28;20897;-39
2022/12/16 03:00:13;;;;;;;37.90;26.37;;;1.80;1.00;;;;;;5113167;28;20455;-41
2022/12/16 03:02:46;;;;;;;31.70;25.03;;;1.80;1.00;;;;;;5098304;28;20423;-40
2022/12/16 03:05:19;;;;;;;37.87;28.03;;;1.80;1.00;;;;;;5098523;28;20656;-41
2022/12/16 03:07:45;;;;;;;33.83;25.77;;;1.80;1.00;;;;;;5113022;28;20705;-41
2022/12/16 03:10:14;;;;;;;33.00;24.80;;;1.80;1.00;;;;;;5117836;28;20421;-40
2022/12/16 03:12:42;;;;;;;36.43;26.60;;;1.80;1.00;;;;;;5117516;28;20481;-40
2022/12/16 03:15:10;;;;;;;34.43;26.07;;;1.80;1.00;;;;;;5119673;28;20461;-39
2022/12/16 03:17:36;;;;;;;33.23;25.10;;;1.80;1.00;;;;;;5119797;28;20409;-43
2022/12/16 03:20:09;;;;;;;31.30;25.60;;;1.80;99.90;;;;;;5119015;28;20504;-40
2022/12/16 03:22:36;;;;;;;31.87;23.97;;;1.80;99.90;;;;;;5119585;28;20792;-40
2022/12/16 03:25:04;;;;;;;31.53;24.03;;;1.80;99.90;;;;;;5118766;28;20768;-40
2022/12/16 03:27:47;;;;;;;33.90;23.87;;;1.70;99.90;;;;;;5117019;28;20405;-41
2022/12/16 03:30:18;;;;;;;30.27;24.97;;;1.70;99.90;;;;;;5099604;28;20808;-40
2022/12/16 03:33:01;;;;;;;31.17;23.40;;;1.70;99.90;;;;;;5098547;28;20480;-40
2022/12/16 03:35:29;;;;;;;32.20;23.63;;;1.70;99.90;;;;;;5099558;28;20468;-40
2022/12/16 03:37:56;;;;;;;31.07;23.70;;;1.70;99.90;;;;;;5115076;28;20513;-42
2022/12/16 03:40:23;;;;;;;27.97;22.77;;;1.70;99.90;;;;;;5107125;28;20790;-40
2022/12/16 03:42:51;;;;;;;33.07;24.30;;;1.70;99.90;;;;;;5098416;28;20414;-40
2022/12/16 03:45:21;;;;;;;29.43;22.07;;;1.70;99.90;;;;;;5098216;28;20701;-41
2022/12/16 03:47:51;;;;;;;30.87;24.23;;;1.70;99.90;;;;;;5097479;28;20503;-41
2022/12/16 03:50:19;;;;;;;31.83;24.20;;;1.70;99.90;;;;;;5098855;28;20786;-41
2022/12/16 03:52:44;;;;;;;30.97;23.53;;;1.70;99.90;;;;;;5117803;28;20433;-40
2022/12/16 03:55:10;;;;;;;31.87;25.20;;;1.70;99.90;;;;;;5118569;28;20942;-41
2022/12/16 03:57:35;;;;;;;31.13;23.33;;;1.70;99.90;;;;;;5118384;28;20187;-39
2022/12/16 04:00:01;;;;;;;31.03;24.50;;;1.60;99.90;;;;;;5109323;28;20199;-41
2022/12/16 04:02:27;;;;;;;34.67;24.50;;;1.60;99.90;;;;;;5103152;28;20176;-41
2022/12/16 04:04:52;;;;;;;31.97;23.67;;;1.60;99.90;;;;;;5119671;28;20172;-41
2022/12/16 04:07:21;;;;;;;26.90;21.63;;;1.60;99.90;;;;;;5109142;28;20526;-40
2022/12/16 04:09:50;;;;;;;31.33;23.00;;;1.60;99.90;;;;;;5097859;28;20168;-39
2022/12/16 04:26:19;;;;;;;33.27;24.00;;;1.60;99.90;;;;;;5082848;28;20437;-42
2022/12/16 04:28:44;;;;;;;30.70;23.73;;;1.50;99.90;;;;;;5096600;28;20501;-40
2022/12/16 04:31:10;;;;;;;33.97;23.27;;;1.60;99.90;;;;;;5096096;28;20513;-39
